Time;durP1;ratioP1;P1;durP2;ratioP2;P2;SDS_P1;SDS_P2;PMS_P1;PMS_P2;Temp;Humidity;BMP_temperature;BMP_pressure;BME280_temperature;BME280_humidity;BME280_pressure;Samples;Min_cycle;Max_cycle;Signal;HPM_P1;HPM_P2
2021/09/08 00:00:51;;;;;;;10.48;6.30;;;15.10;99.90;;;;;;4993117;28;20046;-71
2021/09/08 00:03:18;;;;;;;10.18;7.88;;;15.10;99.90;;;;;;4992757;28;20061;-73
2021/09/08 00:05:47;;;;;;;7.63;6.20;;;15.20;99.90;;;;;;4984888;28;20126;-70
2021/09/08 00:08:14;;;;;;;7.72;5.78;;;15.10;99.90;;;;;;4990955;28;20066;-68
2021/09/08 00:10:41;;;;;;;8.80;6.38;;;15.10;99.90;;;;;;4992310;28;20424;-71
2021/09/08 00:13:08;;;;;;;11.65;6.32;;;15.10;99.90;;;;;;4992469;28;20085;-71
2021/09/08 00:15:35;;;;;;;8.73;6.18;;;15.10;99.90;;;;;;4992636;28;20047;-70
2021/09/08 00:18:02;;;;;;;7.43;6.40;;;15.10;99.90;;;;;;4990931;28;20516;-66
2021/09/08 00:20:29;;;;;;;7.03;5.70;;;15.10;99.90;;;;;;4992387;28;20062;-69
2021/09/08 00:22:55;;;;;;;8.70;6.40;;;15.10;99.90;;;;;;4992353;28;20180;-69
2021/09/08 00:25:22;;;;;;;11.85;7.40;;;15.00;99.90;;;;;;4992018;28;20050;-71
2021/09/08 00:27:49;;;;;;;8.73;6.47;;;15.00;99.90;;;;;;4990621;28;20433;-68
2021/09/08 00:30:16;;;;;;;11.50;7.65;;;15.10;99.90;;;;;;4992288;28;20047;-71
2021/09/08 00:32:44;;;;;;;7.13;5.13;;;15.10;99.90;;;;;;4992100;28;20108;-69
2021/09/08 00:35:12;;;;;;;8.15;6.70;;;15.00;99.90;;;;;;4991920;28;20054;-66
2021/09/08 00:37:41;;;;;;;8.82;5.95;;;15.00;99.90;;;;;;4992044;28;20046;-69
2021/09/08 00:40:10;;;;;;;8.10;7.30;;;15.10;99.90;;;;;;4989977;28;20174;-69
2021/09/08 00:42:40;;;;;;;9.15;6.90;;;15.00;99.90;;;;;;4991962;28;20045;-69
2021/09/08 00:45:08;;;;;;;8.43;7.32;;;15.00;99.90;;;;;;4991435;28;20058;-68
2021/09/08 00:47:39;;;;;;;7.40;6.45;;;15.00;99.90;;;;;;4991286;28;20054;-70
2021/09/08 00:50:09;;;;;;;7.18;6.47;;;15.00;99.90;;;;;;4990011;28;20046;-70
2021/09/08 00:52:38;;;;;;;9.27;7.13;;;15.00;99.90;;;;;;4992069;28;20383;-73
2021/09/08 00:55:10;;;;;;;10.60;6.32;;;15.00;99.90;;;;;;4992366;28;20050;-71
2021/09/08 00:57:38;;;;;;;12.10;8.05;;;15.00;99.90;;;;;;4991819;28;20078;-75
2021/09/08 01:00:07;;;;;;;9.55;7.30;;;15.00;99.90;;;;;;4990268;28;20050;-67
2021/09/08 01:02:39;;;;;;;8.43;7.25;;;15.00;99.90;;;;;;5001132;23;20069;-63
2021/09/08 01:05:07;;;;;;;9.75;7.30;;;15.10;99.90;;;;;;4991116;28;20538;-64
2021/09/08 01:07:36;;;;;;;12.60;7.03;;;15.10;99.90;;;;;;4989760;28;20433;-69
2021/09/08 01:10:04;;;;;;;10.85;8.30;;;15.10;99.90;;;;;;4989626;28;20046;-68
2021/09/08 01:12:31;;;;;;;7.82;6.82;;;15.20;99.90;;;;;;4991240;28;20054;-66
2021/09/08 01:14:59;;;;;;;11.48;8.07;;;15.20;99.90;;;;;;4991198;28;20096;-69
2021/09/08 01:17:27;;;;;;;12.75;6.95;;;15.20;99.90;;;;;;4990916;28;20061;-71
2021/09/08 01:19:53;;;;;;;7.93;6.30;;;15.20;99.90;;;;;;4988803;28;20046;-66
2021/09/08 01:22:28;;;;;;;9.52;5.97;;;15.20;99.90;;;;;;4990954;28;20042;-66
2021/09/08 01:24:55;;;;;;;7.20;6.45;;;15.20;99.90;;;;;;4991037;28;20097;-66
2021/09/08 01:27:23;;;;;;;8.07;6.28;;;15.30;99.90;;;;;;4990677;28;20046;-69
2021/09/08 01:29:50;;;;;;;8.07;6.07;;;15.30;99.90;;;;;;4989277;28;20105;-65
2021/09/08 01:32:17;;;;;;;6.68;5.57;;;15.30;99.90;;;;;;4990488;28;20046;-69
2021/09/08 01:34:44;;;;;;;8.85;6.50;;;15.30;99.90;;;;;;4990629;28;20061;-68
2021/09/08 01:37:11;;;;;;;8.27;6.68;;;15.30;99.90;;;;;;4990483;28;20043;-67
2021/09/08 01:39:38;;;;;;;12.25;9.48;;;15.30;99.90;;;;;;4990617;28;20072;-65
2021/09/08 01:42:05;;;;;;;7.25;6.47;;;15.30;99.90;;;;;;4988824;28;20099;-65
2021/09/08 01:44:32;;;;;;;11.63;8.77;;;15.30;99.90;;;;;;4990646;28;20138;-69
2021/09/08 01:46:59;;;;;;;12.10;7.28;;;15.30;99.90;;;;;;4990319;28;20545;-67
2021/09/08 01:49:25;;;;;;;9.82;7.68;;;15.40;99.90;;;;;;4990259;28;20061;-70
2021/09/08 01:51:52;;;;;;;13.05;8.48;;;15.40;99.90;;;;;;4988298;28;20215;-64
2021/09/08 01:54:20;;;;;;;9.23;6.65;;;15.40;99.90;;;;;;4990109;28;20090;-68
2021/09/08 01:56:47;;;;;;;12.05;7.70;;;15.40;99.90;;;;;;4990484;28;20053;-73
2021/09/08 01:59:14;;;;;;;12.32;7.95;;;15.40;99.90;;;;;;4990241;28;20097;-69
2021/09/08 02:01:41;;;;;;;12.60;8.63;;;15.40;99.90;;;;;;4972139;28;20046;-68
2021/09/08 02:04:08;;;;;;;11.02;8.48;;;15.40;99.90;;;;;;4988646;28;20061;-68
2021/09/08 02:06:46;;;;;;;11.70;8.07;;;15.40;99.90;;;;;;4990065;28;20177;-66
2021/09/08 02:09:13;;;;;;;10.18;8.20;;;15.40;99.90;;;;;;4990317;28;20084;-65
2021/09/08 02:11:40;;;;;;;10.48;7.65;;;15.40;99.90;;;;;;4989894;28;20062;-69
2021/09/08 02:14:08;;;;;;;17.60;8.38;;;15.40;99.90;;;;;;4988206;28;20046;-67
2021/09/08 02:16:35;;;;;;;14.40;8.57;;;15.40;99.90;;;;;;4989881;28;20527;-67
2021/09/08 02:19:02;;;;;;;14.73;8.10;;;15.40;99.90;;;;;;4989822;28;20047;-67
2021/09/08 02:21:29;;;;;;;13.48;8.32;;;15.40;99.90;;;;;;4990124;28;20046;-68
2021/09/08 02:23:56;;;;;;;10.07;8.80;;;15.30;99.90;;;;;;4988512;28;20098;-69
2021/09/08 02:26:23;;;;;;;15.88;8.43;;;15.30;99.90;;;;;;4990269;28;20066;-68
2021/09/08 02:28:50;;;;;;;11.57;8.30;;;15.30;99.90;;;;;;4989864;28;20164;-64
2021/09/08 02:31:17;;;;;;;10.70;7.80;;;15.30;99.90;;;;;;4989776;28;20046;-72
2021/09/08 02:33:44;;;;;;;16.10;9.07;;;15.20;99.90;;;;;;4989757;28;20137;-65
2021/09/08 02:36:11;;;;;;;10.60;8.48;;;15.20;99.90;;;;;;4988471;28;20046;-63
2021/09/08 02:38:37;;;;;;;10.30;8.13;;;15.20;99.90;;;;;;4989789;28;20046;-67
2021/09/08 02:41:06;;;;;;;19.60;9.20;;;15.10;99.90;;;;;;4990065;28;20074;-66
2021/09/08 02:43:34;;;;;;;9.45;8.45;;;15.10;99.90;;;;;;4989704;28;20077;-71
2021/09/08 02:46:03;;;;;;;12.95;10.18;;;15.10;99.90;;;;;;4988519;28;20460;-67
2021/09/08 02:48:34;;;;;;;11.32;8.20;;;15.20;99.90;;;;;;4989856;28;20104;-67
2021/09/08 02:51:02;;;;;;;12.30;8.52;;;15.20;99.90;;;;;;4989473;28;20046;-69
2021/09/08 02:53:29;;;;;;;12.80;9.02;;;15.20;99.90;;;;;;4989778;28;20427;-67
2021/09/08 02:55:56;;;;;;;13.85;9.55;;;15.20;99.90;;;;;;4988152;28;20096;-69
2021/09/08 02:58:23;;;;;;;15.60;10.20;;;15.20;99.90;;;;;;4989549;28;20575;-65
2021/09/08 03:00:50;;;;;;;11.50;9.77;;;15.20;99.90;;;;;;4989589;28;20054;-70
2021/09/08 03:03:18;;;;;;;12.68;9.77;;;15.20;99.90;;;;;;4989250;28;20153;-66
2021/09/08 03:05:47;;;;;;;12.50;9.23;;;15.10;99.90;;;;;;4989578;28;20058;-70
2021/09/08 03:08:15;;;;;;;12.63;9.30;;;15.10;99.90;;;;;;4988009;28;20042;-68
2021/09/08 03:10:46;;;;;;;12.00;9.80;;;15.10;99.90;;;;;;4989673;28;20050;-68
2021/09/08 03:13:15;;;;;;;14.25;9.07;;;15.10;99.90;;;;;;5004947;28;20042;-70
2021/09/08 03:15:42;;;;;;;12.80;9.80;;;15.00;99.90;;;;;;4991951;28;20388;-68
2021/09/08 03:18:09;;;;;;;10.32;8.32;;;15.00;99.90;;;;;;5008350;28;20053;-67
2021/09/08 03:20:36;;;;;;;12.27;8.38;;;15.00;99.90;;;;;;5009360;28;20046;-69
2021/09/08 03:23:04;;;;;;;13.60;10.25;;;15.00;99.90;;;;;;5009586;28;20129;-65
2021/09/08 03:25:31;;;;;;;15.93;9.60;;;15.00;99.90;;;;;;5009537;28;20050;-67
2021/09/08 03:27:59;;;;;;;14.45;9.95;;;15.00;99.90;;;;;;5007718;28;20050;-68
2021/09/08 03:30:25;;;;;;;11.75;9.10;;;14.90;99.90;;;;;;5010893;28;20046;-66
2021/09/08 03:32:53;;;;;;;13.48;9.75;;;14.90;99.90;;;;;;5013134;28;20041;-70
2021/09/08 03:35:20;;;;;;;11.20;8.90;;;14.90;99.90;;;;;;5013348;28;20077;-65
2021/09/08 03:37:47;;;;;;;13.18;10.27;;;14.90;99.90;;;;;;5013214;28;20054;-67
2021/09/08 03:40:14;;;;;;;13.02;8.60;;;14.90;99.90;;;;;;5011051;28;20070;-69
2021/09/08 03:42:41;;;;;;;13.45;8.75;;;14.80;99.90;;;;;;5013148;28;20054;-70
2021/09/08 03:45:09;;;;;;;11.05;9.60;;;14.80;99.90;;;;;;5013079;28;20076;-67
2021/09/08 03:47:36;;;;;;;15.45;9.23;;;14.80;99.90;;;;;;5012887;28;20073;-67
2021/09/08 03:50:05;;;;;;;14.02;11.45;;;14.80;99.90;;;;;;5011517;28;20108;-68
2021/09/08 03:52:32;;;;;;;15.82;11.30;;;14.80;99.90;;;;;;5012712;28;20169;-65
2021/09/08 03:54:59;;;;;;;12.73;11.38;;;14.80;99.90;;;;;;5012734;28;20073;-70
2021/09/08 03:57:25;;;;;;;13.65;9.80;;;14.80;99.90;;;;;;5012708;28;20125;-65
2021/09/08 03:59:52;;;;;;;13.20;10.68;;;14.80;99.90;;;;;;5011024;28;20069;-66
2021/09/08 04:02:19;;;;;;;12.77;10.50;;;14.70;99.90;;;;;;5012152;28;20046;-65
2021/09/08 04:04:47;;;;;;;13.30;9.45;;;14.70;99.90;;;;;;5012630;28;20140;-68
2021/09/08 04:07:14;;;;;;;14.15;10.23;;;14.70;99.90;;;;;;5012661;28;20057;-67
2021/09/08 04:09:41;;;;;;;14.20;10.30;;;14.70;99.90;;;;;;5012622;28;20478;-69
2021/09/08 04:12:08;;;;;;;19.30;11.10;;;14.70;99.90;;;;;;5010748;28;22837;-71
2021/09/08 04:14:35;;;;;;;15.43;11.82;;;14.70;99.90;;;;;;4994932;28;20038;-64
2021/09/08 04:17:02;;;;;;;14.48;10.35;;;14.70;99.90;;;;;;5012312;28;20092;-67
2021/09/08 04:19:29;;;;;;;19.55;11.82;;;14.70;99.90;;;;;;5012484;28;20078;-66
2021/09/08 04:21:56;;;;;;;16.65;11.10;;;14.70;99.90;;;;;;5010530;28;20053;-68
2021/09/08 04:24:23;;;;;;;13.20;11.43;;;14.70;99.90;;;;;;5011887;28;20069;-71
2021/09/08 04:26:50;;;;;;;15.93;11.82;;;14.70;99.90;;;;;;5011721;28;20046;-67
2021/09/08 04:29:17;;;;;;;13.43;10.00;;;14.70;99.90;;;;;;5011555;28;20082;-66
2021/09/08 04:31:44;;;;;;;15.25;11.50;;;14.70;99.90;;;;;;5011439;28;20164;-65
2021/09/08 04:34:11;;;;;;;14.00;11.63;;;14.70;99.90;;;;;;5010116;28;20125;-69
2021/09/08 04:36:37;;;;;;;12.63;10.85;;;14.70;99.90;;;;;;5011658;28;20077;-71
2021/09/08 04:39:04;;;;;;;16.40;11.23;;;14.70;99.90;;;;;;5010928;28;20096;-69
2021/09/08 04:41:31;;;;;;;18.73;10.63;;;14.70;99.90;;;;;;5011377;28;20104;-70
2021/09/08 04:43:58;;;;;;;25.58;12.27;;;14.60;99.90;;;;;;5009944;28;20104;-66
2021/09/08 04:46:25;;;;;;;18.70;12.32;;;14.70;99.90;;;;;;5011417;28;20078;-68
2021/09/08 04:48:52;;;;;;;23.35;12.82;;;14.70;99.90;;;;;;5011382;28;20088;-65
2021/09/08 04:51:19;;;;;;;20.30;13.77;;;14.70;99.90;;;;;;5010791;28;20077;-66
2021/09/08 04:53:46;;;;;;;18.17;10.27;;;14.70;99.90;;;;;;5011554;28;20073;-65
2021/09/08 04:56:13;;;;;;;17.60;11.60;;;14.70;99.90;;;;;;5010108;28;20049;-69
2021/09/08 04:58:40;;;;;;;14.48;12.25;;;14.70;99.90;;;;;;5011352;28;20069;-70
2021/09/08 05:01:07;;;;;;;14.93;11.32;;;14.70;99.90;;;;;;5011148;28;20431;-72
2021/09/08 05:03:34;;;;;;;16.17;12.30;;;14.70;99.90;;;;;;5011085;28;20042;-66
2021/09/08 05:06:01;;;;;;;20.25;10.57;;;14.80;99.90;;;;;;5009651;28;20337;-67
2021/09/08 05:08:28;;;;;;;15.55;10.52;;;14.70;99.90;;;;;;5010941;28;20053;-66
2021/09/08 05:10:55;;;;;;;17.38;11.38;;;14.70;99.90;;;;;;5010780;28;20460;-70
2021/09/08 05:13:22;;;;;;;18.13;11.50;;;14.70;99.90;;;;;;5010746;28;20070;-68
2021/09/08 05:15:49;;;;;;;16.92;11.20;;;14.80;99.90;;;;;;5009829;28;20050;-64
2021/09/08 05:18:16;;;;;;;14.85;11.43;;;14.80;99.90;;;;;;5010775;28;20138;-71
2021/09/08 05:20:44;;;;;;;16.52;11.75;;;14.80;99.90;;;;;;5010849;28;20061;-73
2021/09/08 05:23:11;;;;;;;14.77;10.57;;;14.80;99.90;;;;;;5011263;28;20053;-72
2021/09/08 05:25:38;;;;;;;18.77;11.75;;;14.90;99.90;;;;;;5011027;28;20520;-68
2021/09/08 05:28:05;;;;;;;14.13;10.50;;;14.90;99.90;;;;;;5009265;28;20081;-67
2021/09/08 05:30:32;;;;;;;19.30;11.07;;;14.90;99.90;;;;;;5010908;28;20046;-68
2021/09/08 05:32:59;;;;;;;17.02;11.63;;;14.90;99.90;;;;;;5010703;28;20056;-65
2021/09/08 05:35:26;;;;;;;14.80;11.63;;;14.90;99.90;;;;;;5010713;28;20167;-71
2021/09/08 05:37:52;;;;;;;17.92;11.52;;;15.00;99.90;;;;;;5009077;28;20050;-69
2021/09/08 05:40:19;;;;;;;17.42;12.07;;;15.00;99.90;;;;;;5010798;28;20088;-65
2021/09/08 05:42:46;;;;;;;14.30;11.73;;;15.00;99.90;;;;;;5010587;28;20069;-67
2021/09/08 05:45:13;;;;;;;17.73;12.75;;;15.10;99.90;;;;;;5010603;28;20050;-71
2021/09/08 05:47:40;;;;;;;28.70;13.00;;;15.10;99.90;;;;;;4992953;28;20068;-66
2021/09/08 05:50:07;;;;;;;18.35;12.18;;;15.10;99.90;;;;;;5009149;28;20076;-67
2021/09/08 05:52:34;;;;;;;16.75;12.65;;;15.20;99.90;;;;;;5009830;28;20038;-70
2021/09/08 05:55:01;;;;;;;18.02;12.55;;;15.20;99.90;;;;;;4993045;28;20108;-68
2021/09/08 05:57:28;;;;;;;14.48;11.45;;;15.20;99.90;;;;;;5010545;28;20057;-67
2021/09/08 05:59:55;;;;;;;20.15;11.65;;;15.30;99.90;;;;;;5008915;28;20054;-67
2021/09/08 06:02:22;;;;;;;19.00;13.38;;;15.30;99.90;;;;;;5010161;28;20062;-69
2021/09/08 06:04:49;;;;;;;20.77;13.60;;;15.30;99.90;;;;;;5010081;28;20448;-70
2021/09/08 06:07:16;;;;;;;21.73;13.80;;;15.40;99.90;;;;;;5010444;28;20557;-71
2021/09/08 06:09:43;;;;;;;17.40;12.80;;;15.40;99.90;;;;;;5010220;28;20057;-67
2021/09/08 06:12:10;;;;;;;16.77;13.18;;;15.40;99.90;;;;;;5008472;28;20077;-69
2021/09/08 06:14:37;;;;;;;19.42;12.02;;;15.50;99.90;;;;;;5010320;28;20108;-63
2021/09/08 06:17:06;;;;;;;15.93;12.85;;;15.50;99.90;;;;;;5010389;28;20046;-65
2021/09/08 06:19:35;;;;;;;16.08;10.88;;;15.50;99.90;;;;;;5010272;28;20054;-68
2021/09/08 06:22:03;;;;;;;18.10;12.13;;;15.50;99.90;;;;;;5008491;28;20051;-68
2021/09/08 06:24:30;;;;;;;19.05;12.32;;;15.60;99.90;;;;;;5010111;28;20100;-68
2021/09/08 06:26:59;;;;;;;17.20;12.25;;;15.60;99.90;;;;;;5010045;28;20077;-68
2021/09/08 06:29:26;;;;;;;16.88;12.77;;;15.70;99.90;;;;;;5009827;28;20049;-64
2021/09/08 06:31:53;;;;;;;14.85;11.30;;;15.70;99.90;;;;;;5008843;28;20084;-67
2021/09/08 06:34:20;;;;;;;16.70;10.75;;;15.70;99.90;;;;;;5010150;28;20042;-66
2021/09/08 06:36:49;;;;;;;16.95;11.95;;;15.70;99.90;;;;;;5010233;28;20076;-65
2021/09/08 06:39:16;;;;;;;12.27;10.90;;;15.70;99.90;;;;;;5009805;28;20101;-67
2021/09/08 06:41:48;;;;;;;16.27;10.13;;;15.90;99.90;;;;;;5010136;28;20045;-69
2021/09/08 06:44:17;;;;;;;12.25;10.80;;;15.90;99.90;;;;;;5008829;28;20038;-68
2021/09/08 06:46:44;;;;;;;12.93;10.70;;;16.00;99.90;;;;;;5010135;28;20049;-66
2021/09/08 06:49:11;;;;;;;14.25;9.57;;;16.00;99.90;;;;;;5010002;28;20133;-67
2021/09/08 06:51:38;;;;;;;13.32;9.90;;;16.00;99.90;;;;;;5009874;28;20076;-67
2021/09/08 06:54:05;;;;;;;12.00;8.50;;;16.10;99.90;;;;;;5008383;28;20077;-65
2021/09/08 06:56:32;;;;;;;24.60;12.25;;;16.10;99.90;;;;;;5009992;28;20049;-64
2021/09/08 06:58:59;;;;;;;14.80;10.38;;;16.10;99.90;;;;;;5009880;28;20464;-70
2021/09/08 07:01:26;;;;;;;14.73;11.43;;;16.10;99.90;;;;;;5009835;28;20049;-66
2021/09/08 07:03:53;;;;;;;13.25;10.25;;;16.10;99.90;;;;;;5009112;28;20103;-67
2021/09/08 07:06:22;;;;;;;13.43;9.32;;;16.30;99.90;;;;;;5013957;28;20491;-63
2021/09/08 07:08:50;;;;;;;14.02;10.27;;;16.30;99.90;;;;;;5013784;28;20061;-67
2021/09/08 07:11:18;;;;;;;15.07;10.73;;;16.30;99.90;;;;;;5013644;28;20057;-69
2021/09/08 07:13:45;;;;;;;15.13;11.30;;;16.30;99.90;;;;;;5013586;28;20050;-71
2021/09/08 07:16:15;;;;;;;15.18;11.25;;;16.30;99.90;;;;;;5012393;28;20133;-68
2021/09/08 07:18:42;;;;;;;14.55;10.18;;;16.40;99.90;;;;;;5013864;28;20049;-65
2021/09/08 07:21:09;;;;;;;15.55;11.93;;;16.40;99.90;;;;;;5013479;28;20168;-66
2021/09/08 07:23:36;;;;;;;19.35;13.10;;;16.50;99.90;;;;;;5013887;28;20041;-66
2021/09/08 07:26:03;;;;;;;21.70;11.88;;;16.50;99.90;;;;;;5011754;28;20058;-66
2021/09/08 07:28:30;;;;;;;17.70;13.15;;;16.60;99.90;;;;;;5013264;28;20147;-64
2021/09/08 07:30:57;;;;;;;22.02;13.85;;;16.60;99.90;;;;;;5013213;28;20104;-70
2021/09/08 07:33:24;;;;;;;18.52;13.40;;;16.70;99.90;;;;;;5013173;28;20153;-64
2021/09/08 07:35:52;;;;;;;15.82;12.30;;;16.70;99.90;;;;;;5011572;28;20045;-67
2021/09/08 07:38:20;;;;;;;17.08;13.32;;;16.90;99.90;;;;;;5013185;28;20524;-65
2021/09/08 07:40:47;;;;;;;15.95;11.07;;;16.90;99.90;;;;;;5013072;28;20420;-63
2021/09/08 07:43:14;;;;;;;18.17;13.82;;;17.00;99.90;;;;;;5013062;28;20075;-66
2021/09/08 07:45:48;;;;;;;20.02;13.40;;;17.10;99.90;;;;;;5012612;28;20060;-64
2021/09/08 07:48:15;;;;;;;14.52;12.88;;;17.20;99.90;;;;;;5011186;28;20555;-70
2021/09/08 07:50:43;;;;;;;20.60;13.07;;;17.20;99.90;;;;;;5012874;28;20057;-67
2021/09/08 07:53:10;;;;;;;18.90;14.70;;;17.20;99.90;;;;;;5012205;28;20046;-63
2021/09/08 07:55:37;;;;;;;20.55;13.60;;;17.30;99.90;;;;;;5012871;28;20046;-65
2021/09/08 07:58:04;;;;;;;16.88;14.15;;;17.30;99.90;;;;;;5011278;28;20108;-65
2021/09/08 08:00:35;;;;;;;15.38;12.13;;;17.30;99.90;;;;;;5012720;28;20049;-71
2021/09/08 08:03:03;;;;;;;19.00;11.75;;;17.30;99.90;;;;;;5012389;28;20050;-67
2021/09/08 08:05:32;;;;;;;15.00;12.65;;;17.40;99.90;;;;;;5012214;28;20053;-67
2021/09/08 08:08:00;;;;;;;16.15;11.48;;;17.50;99.90;;;;;;5011094;28;20515;-63
2021/09/08 08:10:28;;;;;;;15.63;10.40;;;17.50;99.90;;;;;;5012632;28;20093;-70
2021/09/08 08:12:55;;;;;;;15.90;10.98;;;17.50;99.90;;;;;;5012319;28;20077;-70
2021/09/08 08:15:22;;;;;;;17.58;11.77;;;17.50;99.90;;;;;;5011647;28;20081;-65
2021/09/08 08:17:49;;;;;;;14.43;11.98;;;17.50;99.90;;;;;;5010555;28;20050;-65
2021/09/08 08:20:18;;;;;;;13.50;10.20;;;17.50;99.90;;;;;;5012052;28;20057;-69
2021/09/08 08:22:45;;;;;;;14.32;10.20;;;17.50;99.90;;;;;;5011832;28;20546;-67
2021/09/08 08:25:14;;;;;;;19.02;13.20;;;17.50;99.90;;;;;;5012785;28;20108;-67
2021/09/08 08:27:41;;;;;;;13.02;9.63;;;17.40;99.90;;;;;;5012060;28;20417;-66
2021/09/08 08:30:10;;;;;;;11.85;9.27;;;17.40;99.90;;;;;;5010890;28;20046;-65
2021/09/08 08:32:38;;;;;;;12.27;10.00;;;17.40;99.90;;;;;;5011966;28;20046;-68
2021/09/08 08:35:06;;;;;;;13.82;11.13;;;17.40;99.90;;;;;;5012382;28;20108;-70
2021/09/08 08:37:34;;;;;;;12.05;10.45;;;17.40;99.90;;;;;;5012380;28;20069;-70
2021/09/08 08:40:03;;;;;;;13.18;10.13;;;17.30;99.90;;;;;;5010392;28;20366;-71
2021/09/08 08:42:31;;;;;;;11.40;10.27;;;17.40;99.90;;;;;;5011860;28;20042;-70
2021/09/08 08:44:58;;;;;;;15.93;10.45;;;17.40;99.90;;;;;;5012027;28;20431;-66
2021/09/08 08:47:26;;;;;;;15.88;11.45;;;17.50;99.90;;;;;;5011908;28;20057;-68
2021/09/08 08:49:53;;;;;;;13.05;10.27;;;17.60;99.90;;;;;;5009896;28;20100;-72
2021/09/08 08:52:21;;;;;;;13.68;10.75;;;17.70;99.90;;;;;;5011924;28;20081;-66
2021/09/08 08:54:48;;;;;;;14.00;9.20;;;17.80;99.90;;;;;;5011897;28;20108;-63
2021/09/08 08:57:15;;;;;;;14.32;9.38;;;17.80;99.90;;;;;;5012367;28;20508;-70
2021/09/08 08:59:43;;;;;;;12.07;9.90;;;17.90;99.90;;;;;;5011674;28;20392;-67
2021/09/08 09:02:19;;;;;;;12.73;8.77;;;17.90;99.90;;;;;;5009890;28;20104;-69
2021/09/08 09:04:47;;;;;;;12.82;10.13;;;17.90;99.90;;;;;;5011657;28;20164;-67
2021/09/08 09:07:27;;;;;;;14.15;10.90;;;17.90;99.90;;;;;;5011785;28;20046;-69
2021/09/08 09:09:57;;;;;;;12.73;10.27;;;17.90;99.90;;;;;;5009861;28;20073;-64
2021/09/08 09:12:36;;;;;;;11.65;10.15;;;18.00;99.90;;;;;;5011920;28;20100;-68
2021/09/08 09:15:08;;;;;;;11.95;10.65;;;18.00;99.90;;;;;;5011861;28;20115;-69
2021/09/08 09:17:37;;;;;;;13.57;9.25;;;18.00;99.90;;;;;;5011503;28;20081;-68
2021/09/08 09:20:13;;;;;;;13.82;10.40;;;18.10;99.90;;;;;;5009251;28;20085;-70
2021/09/08 09:22:52;;;;;;;14.88;10.52;;;18.10;99.90;;;;;;5011057;28;20118;-69
2021/09/08 09:25:32;;;;;;;14.50;10.05;;;18.20;99.90;;;;;;5010804;28;20120;-70
2021/09/08 09:28:02;;;;;;;11.20;9.25;;;18.20;99.90;;;;;;5008352;28;20093;-67
2021/09/08 09:30:32;;;;;;;10.50;9.40;;;18.20;99.90;;;;;;5011242;28;20046;-67
2021/09/08 09:33:29;;;;;;;11.60;10.40;;;18.10;99.90;;;;;;5011109;28;20399;-66
2021/09/08 09:35:58;;;;;;;12.63;9.30;;;18.20;99.90;;;;;;5009603;28;20069;-64
2021/09/08 09:38:26;;;;;;;11.48;9.45;;;18.20;99.90;;;;;;5010919;28;20573;-67
2021/09/08 09:40:53;;;;;;;12.40;9.13;;;18.30;99.90;;;;;;5010673;28;20053;-72
2021/09/08 09:43:19;;;;;;;13.65;9.30;;;18.30;99.90;;;;;;5010950;28;20046;-67
2021/09/08 09:45:46;;;;;;;10.80;8.98;;;18.40;99.90;;;;;;5010584;28;20111;-65
2021/09/08 09:48:14;;;;;;;18.98;9.80;;;18.40;99.90;;;;;;5009140;28;20061;-64
2021/09/08 09:50:46;;;;;;;10.25;8.48;;;18.40;99.90;;;;;;5010730;28;20050;-66
2021/09/08 09:53:18;;;;;;;12.88;10.23;;;18.40;99.90;;;;;;5010606;28;20129;-67
2021/09/08 09:55:46;;;;;;;12.93;8.90;;;18.50;99.90;;;;;;5010544;28;20068;-69
2021/09/08 09:58:13;;;;;;;12.20;8.77;;;18.50;99.90;;;;;;5008702;28;20103;-70
2021/09/08 10:00:41;;;;;;;9.85;8.68;;;18.50;99.90;;;;;;5010048;28;20049;-66
2021/09/08 10:03:08;;;;;;;10.65;9.35;;;18.40;99.90;;;;;;5010193;28;20124;-65
2021/09/08 10:05:37;;;;;;;15.32;10.07;;;18.40;99.90;;;;;;5010230;28;20049;-68
2021/09/08 10:08:05;;;;;;;14.20;10.82;;;18.50;99.90;;;;;;5008739;28;20065;-68
2021/09/08 10:10:35;;;;;;;12.48;9.15;;;18.60;99.90;;;;;;5010515;28;20076;-68
2021/09/08 10:13:11;;;;;;;11.63;9.77;;;18.60;99.90;;;;;;5009806;28;20112;-65
2021/09/08 10:15:38;;;;;;;13.40;9.55;;;18.50;99.90;;;;;;5010244;28;20484;-66
2021/09/08 10:18:12;;;;;;;10.98;9.00;;;18.60;99.90;;;;;;5008551;28;20046;-72
2021/09/08 10:20:42;;;;;;;14.70;10.30;;;18.70;99.90;;;;;;5009701;28;20065;-67
2021/09/08 10:23:12;;;;;;;10.85;9.75;;;18.80;99.90;;;;;;5010030;28;20053;-66
2021/09/08 10:25:49;;;;;;;11.40;8.90;;;18.80;99.90;;;;;;5009818;28;20123;-67
2021/09/08 10:28:18;;;;;;;11.73;9.60;;;18.90;99.90;;;;;;5008076;28;20065;-74
2021/09/08 10:30:47;;;;;;;12.75;9.48;;;19.00;99.90;;;;;;5009740;28;20116;-73
2021/09/08 10:33:15;;;;;;;15.32;8.85;;;19.10;99.90;;;;;;5010333;28;20416;-68
2021/09/08 10:35:42;;;;;;;24.38;9.63;;;19.10;99.90;;;;;;5009623;28;20049;-68
2021/09/08 10:38:16;;;;;;;12.35;9.07;;;19.20;99.90;;;;;;5007687;28;20083;-71
2021/09/08 10:40:47;;;;;;;16.13;10.90;;;19.30;99.90;;;;;;5009826;28;20569;-65
2021/09/08 10:43:14;;;;;;;11.98;8.80;;;19.40;99.90;;;;;;5009757;28;20065;-71
2021/09/08 10:45:50;;;;;;;13.55;10.43;;;19.50;99.90;;;;;;5009370;28;20045;-67
2021/09/08 10:48:36;;;;;;;11.90;9.13;;;19.60;99.90;;;;;;5008471;28;20038;-71
2021/09/08 10:51:05;;;;;;;13.07;8.70;;;19.70;99.90;;;;;;5009294;28;20041;-72
2021/09/08 10:53:33;;;;;;;12.23;8.15;;;19.60;99.90;;;;;;5009190;28;20053;-68
2021/09/08 10:56:02;;;;;;;12.50;9.30;;;19.80;99.90;;;;;;5007760;28;20073;-65
2021/09/08 10:58:58;;;;;;;13.18;9.90;;;19.90;99.90;;;;;;5008876;28;20499;-67
2021/09/08 11:01:26;;;;;;;12.55;9.07;;;20.00;99.90;;;;;;5009191;28;20049;-67
2021/09/08 11:03:53;;;;;;;11.13;9.27;;;20.00;99.90;;;;;;5007129;28;20046;-69
2021/09/08 11:06:44;;;;;;;10.35;9.18;;;20.20;99.90;;;;;;5009153;28;20046;-66
2021/09/08 11:09:13;;;;;;;12.77;10.00;;;20.20;99.90;;;;;;5009461;28;20142;-70
2021/09/08 11:11:57;;;;;;;14.05;9.15;;;20.20;99.90;;;;;;5009041;28;20054;-68
2021/09/08 11:14:50;;;;;;;12.38;9.40;;;20.30;99.90;;;;;;5007820;28;20100;-64
2021/09/08 11:17:24;;;;;;;12.80;8.82;;;20.30;99.90;;;;;;5009065;28;20519;-69
2021/09/08 11:19:56;;;;;;;11.95;8.27;;;20.30;99.90;;;;;;5007693;28;20070;-70
2021/09/08 11:22:24;;;;;;;9.82;8.75;;;20.40;99.90;;;;;;5008688;28;20045;-70
2021/09/08 11:25:11;;;;;;;8.73;7.80;;;20.30;99.90;;;;;;5008894;28;20077;-70
2021/09/08 11:27:40;;;;;;;11.48;8.57;;;20.40;99.90;;;;;;5008619;28;20111;-69
2021/09/08 11:30:10;;;;;;;9.50;7.47;;;20.50;99.90;;;;;;5007486;28;20100;-72
2021/09/08 11:32:55;;;;;;;;;;;20.70;99.90;;;;;;5009753;28;20053;-67
2021/09/08 11:35:44;;;;;;;14.57;10.55;;;20.90;99.90;;;;;;5009773;28;19988;-66
2021/09/08 11:38:17;;;;;;;10.52;8.73;;;21.00;99.90;;;;;;5008120;28;20549;-66
2021/09/08 11:40:46;;;;;;;10.88;7.50;;;21.10;99.90;;;;;;5009279;28;20057;-65
2021/09/08 11:43:28;;;;;;;;;;;21.20;99.90;;;;;;5009723;28;20387;-70
2021/09/08 11:45:55;;;;;;;13.20;9.05;;;21.30;99.90;;;;;;5007808;28;19997;-69
2021/09/08 11:48:29;;;;;;;10.60;7.57;;;21.40;99.90;;;;;;5008990;28;20148;-69
2021/09/08 11:51:00;;;;;;;10.57;8.95;;;21.50;99.90;;;;;;5010132;28;20136;-69
2021/09/08 11:53:27;;;;;;;9.65;8.05;;;21.50;99.90;;;;;;5012958;28;20143;-65
2021/09/08 11:56:12;;;;;;;9.98;7.90;;;21.40;99.90;;;;;;5011117;28;20093;-71
2021/09/08 11:58:40;;;;;;;8.15;7.35;;;21.30;99.90;;;;;;5013252;28;20133;-73
2021/09/08 12:01:10;;;;;;;12.02;7.90;;;21.30;99.90;;;;;;5011456;28;20042;-67
2021/09/08 12:03:50;;;;;;;9.35;8.02;;;21.10;99.90;;;;;;5012580;28;20125;-67
2021/09/08 12:06:19;;;;;;;11.18;8.32;;;21.00;99.90;;;;;;5011547;28;20045;-71
2021/09/08 12:09:12;;;;;;;9.18;8.27;;;20.90;99.90;;;;;;5012854;28;20133;-67
2021/09/08 12:11:45;;;;;;;8.73;7.57;;;20.90;99.90;;;;;;5012859;28;20046;-68
2021/09/08 12:14:25;;;;;;;11.93;9.00;;;20.80;99.90;;;;;;5010924;28;20081;-68
2021/09/08 12:16:54;;;;;;;;;;;20.80;99.90;;;;;;5012695;28;20046;-70
2021/09/08 12:19:32;;;;;;;9.13;7.70;;;20.90;99.90;;;;;;5012337;28;20260;-72
2021/09/08 12:22:20;;;;;;;9.73;7.30;;;20.80;99.90;;;;;;5010882;28;20080;-71
2021/09/08 12:24:48;;;;;;;13.70;8.52;;;20.70;99.90;;;;;;5012385;28;20057;-69
2021/09/08 12:27:25;;;;;;;14.48;8.88;;;20.60;99.90;;;;;;5012815;28;20211;-70
2021/09/08 12:30:01;;;;;;;10.25;8.20;;;20.50;99.90;;;;;;5009228;28;20494;-71
2021/09/08 12:32:47;;;;;;;11.05;7.20;;;20.40;99.90;;;;;;5007717;28;20045;-74
2021/09/08 12:35:49;;;;;;;9.80;8.70;;;20.30;99.90;;;;;;5009085;28;20408;-73
2021/09/08 12:38:34;;;;;;;10.65;7.72;;;20.30;99.90;;;;;;4985961;28;20045;-74
2021/09/08 12:41:27;;;;;;;11.45;8.10;;;20.30;99.90;;;;;;5009225;28;20440;-70
2021/09/08 12:43:54;;;;;;;14.00;8.85;;;20.20;99.90;;;;;;5007534;28;20427;-74
2021/09/08 12:47:06;;;;;;;11.38;8.52;;;20.20;99.90;;;;;;5008329;28;20558;-71